Dati Storici

Data ora Umidita' aria (%) Temperatura aria (°C) Rad globale (W/m²) Gonioanemometro (°) Tacoanemometro (m/s) Pioggia (mm)
24-10-2012 07:30 70.3 % 11.018 3.741 6.299 1.572 0
24-10-2012 07:20 70.6 % 10.957 1.882 356.898 1.136 0
24-10-2012 07:10 70.6 % 10.926 1.716 18.191 1.074 0
24-10-2012 07:00 70.4 % 10.897 1.472 8.914 1.246 0
24-10-2012 06:50 70.3 % 11.02 1.392 27.499 2.025 0
24-10-2012 06:40 70.8 % 10.935 1.43 24.661 1.552 0
24-10-2012 06:30 71.2 % 10.831 1.353 352.101 2.256 0
24-10-2012 06:20 71.4 % 10.9 1.469 16.312 1.829 0
24-10-2012 06:10 72 % 10.758 1.572 10.42 3.043 0
24-10-2012 06:00 72.6 % 10.629 1.558 1.69 1.423 0
24-10-2012 05:50 72.9 % 10.571 1.398 10.626 2.368 0
24-10-2012 05:40 73.2 % 10.549 1.245 0.45 2.006 0
24-10-2012 05:30 73.2 % 10.512 1.488 8.442 2.278 0
24-10-2012 05:20 73.2 % 10.582 1.398 26.831 1.303 0
24-10-2012 05:10 73.3 % 10.629 1.424 6.125 1.982 0
24-10-2012 05:00 73.6 % 10.569 1.258 9.474 3.085 0
24-10-2012 04:50 73.4 % 10.687 1.117 10.742 1.396 0
24-10-2012 04:40 73.1 % 10.771 1.258 33.228 1.367 0
24-10-2012 04:30 72.8 % 10.802 1.309 352.722 1.726 0
24-10-2012 04:20 72.8 % 10.975 1.27 25.096 2.802 0

I dati sono presentati in modo automatico a scopo informativo. In seguito a verifica i dati possono subire modifiche o essere invalidati e non riportati negli archivi definitivi.